Terminal Aerodrome Forecast
Issued by NWS

Home | Current Version | Previous Version | Text Only | Print | Product List | Glossary On
Versions: 1 2 3 4 5 6 7 8 9 10 11 12 13 14 15 16 17 18
000
FTUS43 KGRB 011600 AAB
TAFMTW
TAF AMD
KMTW 011618Z 0116/0212 05012G22KT 2SM -SN OVC012
      TEMPO 0116/0118 3/4SM -SN
     FM011800 03018G28KT 4SM -SN OVC025
      TEMPO 0118/0120 2SM -SN BLSN BKN012
     FM012100 03018G28KT 6SM -SN BLSN BKN030
     FM020400 01015G23KT P6SM -SHSN SCT035 BKN070
     FM020700 35013G20KT P6SM SCT070 BKN120=

USA.gov is the U.S. government's official web portal to all federal, state and local government web resources and services.